New Hartford, Minnesota
Current Conditions -  °F | °C
As of 2:53 AM on Friday 31 Oct 2014 (Local Time) from KLSE Reporting Station
Broken Clouds Broken Clouds  
Wind Chill: 23°   Ceiling: 8500
Heat Index: 34°   Visibility: 10mi
Dew Point: 19°   Wind: 18mph
Humidity: 54%   Direction: 340°NNW
Pressure: 30.28"   Gusts: 28mph
Location:  43.9163°N, 91.4255°W
Report Text: KLSE 310753Z AUTO 34016G24KT 10SM SCT040 BKN085 01/M07 A3028 RMK AO2 PK WND 34029/0733 SLP263 T00111072 $
Loading
Personal Weather Stations






























Interactive Weather Map
Tropical Storm Tracking
New forecast layout! Learn more

10-Day Weather Forecast

Advertisements
Track Severe Weather on mobile